Time;durP1;ratioP1;P1;durP2;ratioP2;P2;SDS_P1;SDS_P2;PMS_P1;PMS_P2;Temp;Humidity;BMP_temperature;BMP_pressure;BME280_temperature;BME280_humidity;BME280_pressure;Samples;Min_cycle;Max_cycle;Signal;HPM_P1;HPM_P2
2023/10/14 00:01:11;;;;;;;3.55;0.50;;;13.20;99.90;;;;;;4959351;28;20066;-73
2023/10/14 00:03:41;;;;;;;5.60;0.98;;;13.60;99.90;;;;;;4964893;28;20100;-73
2023/10/14 00:06:07;;;;;;;3.33;0.85;;;13.30;99.90;;;;;;4938715;28;20663;-73
2023/10/14 00:08:34;;;;;;;4.13;0.90;;;13.50;99.90;;;;;;4962432;28;20092;-77
2023/10/14 00:11:01;;;;;;;3.30;0.68;;;13.60;99.90;;;;;;4960920;28;20402;-74
2023/10/14 00:13:42;;;;;;;3.33;0.80;;;13.30;99.90;;;;;;4963911;28;20498;-73
2023/10/14 00:16:29;;;;;;;2.25;0.57;;;13.50;99.90;;;;;;4958808;28;20050;-72
2023/10/14 00:19:09;;;;;;;4.60;0.90;;;13.50;99.90;;;;;;4963302;28;20422;-73
2023/10/14 00:21:35;;;;;;;3.50;0.70;;;13.10;99.90;;;;;;4948685;28;20082;-71
2023/10/14 00:24:03;;;;;;;3.67;0.90;;;13.00;99.90;;;;;;4962458;28;20038;-72
2023/10/14 00:26:29;;;;;;;2.67;0.65;;;13.50;99.90;;;;;;4958256;28;20047;-72
2023/10/14 00:29:17;;;;;;;5.95;1.00;;;13.40;99.90;;;;;;4963134;28;20129;-73
2023/10/14 00:31:52;;;;;;;5.10;0.75;;;13.00;99.90;;;;;;4965863;28;20124;-72
2023/10/14 00:34:22;;;;;;;5.82;1.40;;;13.40;99.90;;;;;;4961662;28;20050;-71
2023/10/14 00:36:48;;;;;;;6.95;1.15;;;12.90;99.90;;;;;;4965534;28;20121;-72
2023/10/14 00:39:15;;;;;;;4.53;1.23;;;12.80;99.90;;;;;;4968948;28;20602;-73
2023/10/14 00:41:43;;;;;;;7.32;1.20;;;13.00;99.90;;;;;;4969243;28;21067;-72
2023/10/14 00:44:10;;;;;;;5.80;1.00;;;13.10;99.90;;;;;;4979226;28;20031;-70
2023/10/14 00:46:48;;;;;;;6.05;2.05;;;12.50;99.90;;;;;;4963265;28;20379;-72
2023/10/14 00:49:16;;;;;;;7.78;1.20;;;12.40;99.90;;;;;;4964328;28;20129;-71
2023/10/14 00:51:45;;;;;;;6.35;1.30;;;12.50;99.90;;;;;;4964548;28;20043;-73
2023/10/14 00:54:12;;;;;;;6.30;1.45;;;12.50;99.90;;;;;;4949599;28;20047;-72
2023/10/14 00:56:42;;;;;;;8.32;1.40;;;12.50;99.90;;;;;;4950582;28;20042;-71
2023/10/14 00:59:09;;;;;;;;;;;12.40;99.90;;;;;;4964363;28;20154;-72
2023/10/14 01:02:09;;;;;;;8.02;1.50;;;12.20;99.90;;;;;;4978982;28;19929;-72
2023/10/14 01:04:32;;;;;;;7.35;1.27;;;12.10;99.90;;;;;;4962843;28;20078;-72
2023/10/14 01:09:41;;;;;;;2.92;1.20;;;12.40;99.90;;;;;;4970324;28;20035;-71
2023/10/14 01:12:37;;;;;;;9.02;1.35;;;12.10;99.90;;;;;;4953500;28;20516;-73
2023/10/14 01:15:12;;;;;;;8.25;1.40;;;12.30;99.90;;;;;;4966529;28;20406;-73
2023/10/14 01:17:37;;;;;;;5.70;1.80;;;12.00;99.90;;;;;;4965892;28;20039;-72
2023/10/14 01:20:26;;;;;;;7.95;1.65;;;12.20;99.90;;;;;;4957827;28;20062;-72
2023/10/14 01:22:57;;;;;;;10.23;1.50;;;12.20;99.90;;;;;;4958938;28;22298;-72
2023/10/14 01:25:30;;;;;;;7.28;1.30;;;11.90;99.90;;;;;;4963100;28;20618;-71
2023/10/14 01:27:59;;;;;;;3.95;1.20;;;12.00;99.90;;;;;;4943155;28;20063;-72
2023/10/14 01:30:32;;;;;;;6.78;1.35;;;11.90;99.90;;;;;;4960579;28;20065;-71
2023/10/14 01:33:12;;;;;;;7.38;1.55;;;11.70;99.90;;;;;;4961575;28;20039;-71
2023/10/14 01:35:42;;;;;;;12.45;1.73;;;11.50;99.90;;;;;;4960366;28;20074;-71
2023/10/14 01:38:08;;;;;;;7.95;1.40;;;11.50;99.90;;;;;;4963609;28;20050;-72
2023/10/14 01:40:37;;;;;;;8.35;1.75;;;11.70;99.90;;;;;;4972627;28;20043;-70
2023/10/14 01:43:08;;;;;;;5.57;1.42;;;11.50;99.90;;;;;;4966874;28;20046;-70
2023/10/14 01:46:00;;;;;;;7.65;1.30;;;11.50;99.90;;;;;;4959666;28;20068;-70
2023/10/14 01:48:31;;;;;;;11.18;1.52;;;11.20;99.90;;;;;;4963394;28;20047;-71
2023/10/14 01:50:57;;;;;;;;;;;11.40;99.90;;;;;;4965390;28;20050;-73
2023/10/14 01:53:29;;;;;;;10.15;1.63;;;11.00;99.90;;;;;;4961689;28;19926;-71
2023/10/14 01:55:58;;;;;;;9.85;1.30;;;11.00;99.90;;;;;;4956286;28;20066;-71
2023/10/14 01:58:32;;;;;;;10.00;1.58;;;11.00;99.90;;;;;;4953115;28;20193;-70
2023/10/14 02:03:41;;;;;;;10.65;1.48;;;11.00;99.90;;;;;;4963122;28;20061;-70
2023/10/14 02:06:16;;;;;;;8.52;1.58;;;11.00;99.90;;;;;;4962524;28;20061;-70
2023/10/14 02:08:44;;;;;;;13.48;1.92;;;11.00;99.90;;;;;;4965252;28;20493;-71
2023/10/14 02:11:10;;;;;;;8.45;1.52;;;11.00;99.90;;;;;;4952560;28;20039;-71
2023/10/14 02:13:36;;;;;;;11.95;2.05;;;10.80;99.90;;;;;;4966245;28;20449;-71
2023/10/14 02:16:08;;;;;;;12.15;1.42;;;11.00;99.90;;;;;;4963855;28;20501;-71
2023/10/14 02:18:37;;;;;;;7.05;1.33;;;10.70;99.90;;;;;;4963288;28;20323;-70
2023/10/14 02:21:05;;;;;;;14.97;1.73;;;10.70;99.90;;;;;;4962237;28;20053;-71
2023/10/14 02:23:44;;;;;;;8.93;1.70;;;10.60;99.90;;;;;;4947485;28;20027;-70
2023/10/14 02:26:16;;;;;;;8.68;1.48;;;10.80;99.90;;;;;;4959219;28;20051;-69
2023/10/14 02:28:45;;;;;;;10.45;1.42;;;10.70;99.90;;;;;;4958905;28;20136;-72
2023/10/14 02:31:28;;;;;;;10.45;1.77;;;10.50;99.90;;;;;;4964301;28;20038;-71
2023/10/14 02:34:08;;;;;;;8.25;1.67;;;10.40;99.90;;;;;;4964184;28;20050;-70
2023/10/14 02:36:35;;;;;;;14.52;1.70;;;10.30;99.90;;;;;;4956969;28;20097;-70
2023/10/14 02:39:12;;;;;;;8.95;1.58;;;10.30;99.90;;;;;;4961088;28;20035;-70
2023/10/14 02:41:40;;;;;;;13.90;1.70;;;10.40;99.90;;;;;;4961896;28;20138;-70
2023/10/14 02:46:42;;;;;;;10.85;1.83;;;10.30;99.90;;;;;;4959884;28;20047;-69
2023/10/14 02:49:13;;;;;;;8.70;1.33;;;10.20;99.90;;;;;;4954182;28;20039;-71
2023/10/14 02:51:42;;;;;;;;;;;10.20;99.90;;;;;;4959337;28;20054;-69
2023/10/14 02:54:26;;;;;;;9.35;2.22;;;10.40;99.90;;;;;;4957310;28;19918;-69
2023/10/14 02:57:00;;;;;;;11.18;1.80;;;10.30;99.90;;;;;;4975339;28;20039;-71
2023/10/14 03:09:51;;;;;;;9.02;1.50;;;10.00;99.90;;;;;;4959803;28;20081;-68
2023/10/14 03:12:21;;;;;;;11.13;1.60;;;10.00;99.90;;;;;;4965969;28;20123;-69
2023/10/14 03:14:52;;;;;;;12.07;1.85;;;10.10;99.90;;;;;;4962735;28;20050;-71
2023/10/14 03:17:25;;;;;;;12.77;1.75;;;9.80;99.90;;;;;;4959743;28;20047;-69
2023/10/14 03:19:54;;;;;;;10.00;1.73;;;9.80;99.90;;;;;;4959921;28;20059;-70
2023/10/14 03:22:23;;;;;;;7.10;1.60;;;9.80;99.90;;;;;;4957950;28;20097;-68
2023/10/14 03:24:52;;;;;;;12.15;1.60;;;9.80;99.90;;;;;;4965874;28;20046;-69
2023/10/14 03:27:19;;;;;;;14.65;1.80;;;9.70;99.90;;;;;;4958688;28;20477;-72
2023/10/14 03:29:54;;;;;;;15.30;1.70;;;9.90;99.90;;;;;;4975913;28;20114;-68
2023/10/14 03:32:25;;;;;;;11.57;1.55;;;9.80;99.90;;;;;;4976127;28;20146;-69
2023/10/14 03:34:52;;;;;;;11.75;1.90;;;9.70;99.90;;;;;;4961428;28;20108;-70
2023/10/14 03:37:25;;;;;;;13.82;1.45;;;9.70;99.90;;;;;;4977068;28;20041;-69
2023/10/14 03:42:51;;;;;;;9.15;1.75;;;9.70;99.90;;;;;;4955953;28;20396;-70
2023/10/14 03:45:20;;;;;;;6.45;1.50;;;9.50;99.90;;;;;;4973438;28;20047;-68
2023/10/14 03:47:51;;;;;;;11.23;1.80;;;9.70;99.90;;;;;;4952767;28;20039;-69
2023/10/14 03:50:23;;;;;;;10.15;2.35;;;9.70;99.90;;;;;;4970994;28;20470;-68
2023/10/14 03:52:51;;;;;;;11.23;1.40;;;9.60;99.90;;;;;;4963951;28;20119;-68
2023/10/14 03:55:24;;;;;;;13.07;1.75;;;9.40;99.90;;;;;;4939824;28;20106;-69
2023/10/14 03:58:02;;;;;;;15.57;1.48;;;9.60;99.90;;;;;;4951444;28;20071;-68
2023/10/14 04:00:36;;;;;;;13.00;1.88;;;9.40;99.90;;;;;;4971384;28;20504;-67
2023/10/14 04:03:04;;;;;;;11.93;1.63;;;9.50;99.90;;;;;;4957284;28;20065;-69
2023/10/14 04:05:30;;;;;;;8.75;1.40;;;9.30;99.90;;;;;;4948503;28;20486;-68
2023/10/14 04:07:57;;;;;;;11.55;1.70;;;9.20;99.90;;;;;;4955369;28;20106;-67
2023/10/14 04:10:23;;;;;;;10.35;1.42;;;9.20;99.90;;;;;;4953040;28;20093;-68
2023/10/14 04:12:56;;;;;;;10.13;1.63;;;9.20;99.90;;;;;;4959109;28;20769;-66
2023/10/14 04:15:47;;;;;;;12.65;3.38;;;9.40;99.90;;;;;;4959468;28;20031;-68
2023/10/14 04:18:12;;;;;;;7.63;2.00;;;9.20;99.90;;;;;;4966513;28;20054;-68
2023/10/14 04:20:38;;;;;;;7.57;1.60;;;9.10;99.90;;;;;;4966070;28;20054;-66
2023/10/14 04:23:17;;;;;;;7.75;1.45;;;9.10;99.90;;;;;;4963878;28;20034;-68
2023/10/14 04:25:43;;;;;;;9.80;2.17;;;9.10;99.90;;;;;;4960065;28;20370;-68
2023/10/14 04:30:44;;;;;;;6.93;1.48;;;9.00;99.90;;;;;;4966847;28;20129;-67
2023/10/14 04:33:18;;;;;;;8.38;1.58;;;9.20;99.90;;;;;;4966327;28;20045;-68
2023/10/14 04:35:57;;;;;;;6.95;1.65;;;9.10;99.90;;;;;;4948735;28;20039;-67
2023/10/14 04:38:37;;;;;;;8.13;1.50;;;8.90;99.90;;;;;;4968891;28;20050;-66
2023/10/14 04:41:03;;;;;;;10.23;1.60;;;9.10;99.90;;;;;;4979665;28;20046;-67
2023/10/14 04:45:55;;;;;;;14.77;1.88;;;8.90;99.90;;;;;;4980431;28;20132;-67
2023/10/14 04:51:09;;;;;;;12.02;1.90;;;8.80;99.90;;;;;;4978553;28;20057;-66
2023/10/14 04:53:35;;;;;;;8.55;1.45;;;8.80;99.90;;;;;;4956391;28;20046;-66
2023/10/14 04:56:08;;;;;;;14.90;1.75;;;8.80;99.90;;;;;;4965951;28;20101;-67
2023/10/14 04:58:34;;;;;;;12.50;2.30;;;8.70;99.90;;;;;;4966546;28;20169;-66
2023/10/14 05:01:09;;;;;;;13.07;1.92;;;8.70;99.90;;;;;;4982976;28;20453;-66
2023/10/14 05:03:35;;;;;;;11.93;1.63;;;8.70;99.90;;;;;;4963963;28;22710;-66
2023/10/14 05:08:44;;;;;;;13.75;2.00;;;9.00;99.90;;;;;;4964867;28;20054;-67
2023/10/14 05:11:12;;;;;;;15.55;1.50;;;8.70;99.90;;;;;;4970208;28;20038;-66
2023/10/14 05:13:46;;;;;;;7.10;1.50;;;8.90;99.90;;;;;;4965795;28;20133;-66
2023/10/14 05:16:21;;;;;;;10.45;1.40;;;8.60;99.90;;;;;;4965426;28;20069;-67
2023/10/14 05:24:23;;;;;;;8.48;1.65;;;8.60;99.90;;;;;;4956629;28;20350;-69
2023/10/14 05:26:58;;;;;;;5.20;1.20;;;8.90;99.90;;;;;;4966185;28;20431;-65
2023/10/14 05:29:28;;;;;;;10.75;2.10;;;8.90;99.90;;;;;;4955448;28;20034;-66
2023/10/14 05:32:07;;;;;;;14.00;1.77;;;8.50;99.90;;;;;;4967720;28;20108;-66
2023/10/14 05:34:33;;;;;;;9.52;1.40;;;8.80;99.90;;;;;;4986096;28;20908;-67
2023/10/14 05:37:00;;;;;;;10.30;1.70;;;8.70;99.90;;;;;;4968700;28;20414;-67
2023/10/14 05:39:27;;;;;;;9.45;1.33;;;8.80;99.90;;;;;;4965113;28;20049;-66
2023/10/14 05:41:58;;;;;;;11.18;1.85;;;8.80;99.90;;;;;;4967198;28;20470;-67
2023/10/14 05:44:29;;;;;;;11.57;1.63;;;8.60;99.90;;;;;;4968384;28;20359;-67
2023/10/14 05:46:55;;;;;;;10.50;1.63;;;8.60;99.90;;;;;;4970156;28;20050;-66
2023/10/14 05:49:26;;;;;;;9.95;1.45;;;8.80;99.90;;;;;;4968244;28;20154;-66
2023/10/14 05:51:53;;;;;;;10.63;1.80;;;8.80;99.90;;;;;;4972327;28;20034;-66
2023/10/14 05:54:22;;;;;;;13.40;2.33;;;8.80;99.90;;;;;;4951009;28;20065;-67
2023/10/14 05:56:51;;;;;;;11.80;1.60;;;8.50;99.90;;;;;;4967855;28;20066;-68
2023/10/14 05:59:17;;;;;;;14.00;1.92;;;8.50;99.90;;;;;;4974863;28;20120;-66
2023/10/14 06:01:46;;;;;;;10.75;1.70;;;8.70;99.90;;;;;;4965645;28;20543;-68
2023/10/14 06:04:13;;;;;;;15.23;1.98;;;8.60;99.90;;;;;;4983937;28;20053;-65
2023/10/14 06:06:40;;;;;;;10.52;1.95;;;8.70;99.90;;;;;;4969240;28;20035;-66
2023/10/14 06:09:07;;;;;;;21.45;2.45;;;8.80;99.90;;;;;;4970780;28;20057;-67
2023/10/14 06:11:33;;;;;;;14.55;2.30;;;8.50;99.90;;;;;;4968837;28;20049;-66
2023/10/14 06:13:58;;;;;;;16.70;1.88;;;8.60;99.90;;;;;;4973958;28;20125;-67
2023/10/14 06:16:25;;;;;;;9.32;2.70;;;8.60;99.90;;;;;;4971166;28;20153;-66
2023/10/14 06:18:51;;;;;;;10.93;1.38;;;8.80;99.90;;;;;;4970551;28;20065;-68
2023/10/14 06:21:16;;;;;;;16.52;1.98;;;8.80;99.90;;;;;;4983045;28;20363;-65
2023/10/14 06:23:47;;;;;;;17.42;1.63;;;8.50;99.90;;;;;;4970096;28;20129;-65
2023/10/14 06:26:16;;;;;;;14.02;2.20;;;8.80;99.90;;;;;;4970811;28;20314;-66
2023/10/14 06:28:45;;;;;;;16.17;2.20;;;8.80;99.90;;;;;;4970895;28;20089;-65
2023/10/14 06:31:12;;;;;;;13.88;2.70;;;8.80;99.90;;;;;;4968876;28;20044;-67
2023/10/14 06:33:40;;;;;;;16.55;2.03;;;8.80;99.90;;;;;;4965710;28;20038;-65
2023/10/14 06:36:10;;;;;;;10.48;1.88;;;8.70;99.90;;;;;;4975443;28;20493;-66
2023/10/14 06:38:38;;;;;;;14.43;1.65;;;8.70;99.90;;;;;;4982219;28;20489;-66
2023/10/14 06:41:05;;;;;;;14.52;2.08;;;8.70;99.90;;;;;;4971400;28;20100;-68
2023/10/14 06:43:33;;;;;;;11.68;2.33;;;8.90;99.90;;;;;;4967971;28;20074;-66
2023/10/14 06:45:59;;;;;;;12.18;2.20;;;8.70;99.90;;;;;;4961004;28;20041;-66
2023/10/14 06:48:25;;;;;;;16.63;2.33;;;8.90;99.90;;;;;;4966148;28;20042;-66
2023/10/14 06:50:54;;;;;;;8.77;1.83;;;8.90;99.90;;;;;;4966924;28;20125;-66
2023/10/14 06:53:20;;;;;;;10.57;2.00;;;8.80;99.90;;;;;;4970231;28;20039;-66
2023/10/14 06:55:46;;;;;;;9.60;1.73;;;9.10;99.90;;;;;;4972812;28;20186;-67
2023/10/14 06:58:18;;;;;;;14.10;2.67;;;9.00;99.90;;;;;;4971772;28;20034;-67
2023/10/14 07:00:45;;;;;;;9.18;1.70;;;9.10;99.90;;;;;;4968643;28;20546;-66
2023/10/14 07:03:14;;;;;;;13.82;1.90;;;9.20;99.90;;;;;;4981204;28;20050;-66
2023/10/14 07:05:46;;;;;;;9.82;1.42;;;9.30;99.90;;;;;;4951635;28;20080;-66
2023/10/14 07:08:13;;;;;;;14.05;1.88;;;9.20;99.90;;;;;;4967639;28;20117;-67
2023/10/14 07:10:39;;;;;;;10.88;1.92;;;9.10;99.90;;;;;;4967144;28;20121;-66
2023/10/14 07:13:05;;;;;;;20.48;1.92;;;9.40;99.90;;;;;;4966761;28;20149;-67
2023/10/14 07:15:36;;;;;;;11.07;1.42;;;9.50;99.90;;;;;;4956231;28;20565;-67
2023/10/14 07:18:02;;;;;;;20.45;2.53;;;9.40;99.90;;;;;;4964198;28;20493;-67
2023/10/14 07:20:31;;;;;;;11.52;1.90;;;9.50;99.90;;;;;;4953262;28;20034;-67
2023/10/14 07:22:58;;;;;;;10.77;2.00;;;9.60;99.90;;;;;;4989226;28;20089;-68
2023/10/14 07:25:30;;;;;;;10.20;1.50;;;9.60;99.90;;;;;;4953642;28;20039;-69
2023/10/14 07:27:59;;;;;;;7.90;1.70;;;9.70;99.90;;;;;;4972771;28;20046;-67
2023/10/14 07:30:27;;;;;;;11.88;1.77;;;9.80;99.90;;;;;;4971250;28;20077;-68
2023/10/14 07:32:54;;;;;;;12.10;1.80;;;9.90;99.90;;;;;;4967333;28;20046;-68
2023/10/14 07:35:20;;;;;;;12.25;1.92;;;9.90;99.90;;;;;;4955926;28;20111;-69
2023/10/14 07:37:48;;;;;;;13.48;2.35;;;10.00;99.90;;;;;;4970616;28;20077;-70
2023/10/14 07:40:24;;;;;;;10.18;3.22;;;10.10;99.90;;;;;;4986940;28;20038;-69
2023/10/14 07:43:07;;;;;;;15.80;2.20;;;10.20;99.90;;;;;;4963268;28;20046;-69
2023/10/14 07:45:35;;;;;;;8.40;1.50;;;10.20;99.90;;;;;;4974620;28;20131;-70
2023/10/14 07:48:08;;;;;;;11.38;2.20;;;10.30;99.90;;;;;;4988953;28;20043;-70
2023/10/14 07:50:39;;;;;;;10.10;1.70;;;10.30;99.90;;;;;;4968280;28;20150;-70
2023/10/14 07:53:08;;;;;;;10.80;1.83;;;10.30;99.90;;;;;;4955905;28;20134;-71
2023/10/14 07:55:56;;;;;;;11.38;1.75;;;10.40;99.90;;;;;;4950687;28;20038;-70
2023/10/14 07:58:28;;;;;;;10.73;2.47;;;10.60;99.90;;;;;;4985187;28;20054;-70
2023/10/14 08:00:55;;;;;;;10.65;1.40;;;10.50;99.90;;;;;;4967673;28;20046;-70
2023/10/14 08:03:22;;;;;;;7.43;1.45;;;10.70;99.90;;;;;;4969280;28;20053;-68
2023/10/14 08:05:53;;;;;;;14.98;1.60;;;10.70;99.90;;;;;;4967074;28;20367;-71
2023/10/14 08:08:20;;;;;;;10.38;3.00;;;10.90;99.90;;;;;;4983740;28;20466;-72
2023/10/14 08:10:48;;;;;;;15.68;2.50;;;11.00;99.90;;;;;;4976464;28;20129;-71
2023/10/14 08:13:18;;;;;;;6.10;1.98;;;11.20;99.90;;;;;;4973374;28;20074;-71
2023/10/14 08:15:44;;;;;;;15.43;2.10;;;11.20;99.90;;;;;;4971699;28;20038;-72
2023/10/14 08:18:13;;;;;;;5.10;1.33;;;11.10;99.90;;;;;;4973000;28;20054;-74
2023/10/14 08:20:38;;;;;;;11.23;1.58;;;11.20;99.90;;;;;;4970197;28;20528;-72
2023/10/14 08:23:09;;;;;;;13.40;1.95;;;11.30;99.90;;;;;;4972312;28;20125;-72
2023/10/14 08:25:36;;;;;;;13.63;1.67;;;11.40;99.90;;;;;;4972978;28;20406;-74
2023/10/14 08:28:05;;;;;;;10.93;1.80;;;11.30;99.90;;;;;;4957049;28;20537;-76
2023/10/14 08:30:36;;;;;;;10.60;1.63;;;11.30;99.90;;;;;;4972226;28;20129;-70
2023/10/14 08:33:02;;;;;;;17.67;1.90;;;11.30;99.90;;;;;;4989194;28;20098;-73
2023/10/14 08:35:29;;;;;;;11.05;1.85;;;11.40;99.90;;;;;;4969079;28;20493;-73
2023/10/14 08:37:57;;;;;;;12.57;1.70;;;11.50;99.90;;;;;;4972111;28;20054;-74
2023/10/14 08:40:26;;;;;;;11.55;1.73;;;11.60;99.90;;;;;;4972824;28;20053;-71
2023/10/14 08:43:05;;;;;;;8.70;1.50;;;11.70;99.90;;;;;;4973726;28;20088;-76
2023/10/14 08:45:36;;;;;;;8.30;1.50;;;11.70;99.90;;;;;;4959008;28;20044;-75
2023/10/14 08:48:02;;;;;;;9.60;2.08;;;11.80;99.90;;;;;;4992794;28;20781;-73
2023/10/14 08:50:33;;;;;;;8.52;1.70;;;11.80;99.90;;;;;;4980324;28;20149;-73
2023/10/14 08:53:03;;;;;;;10.95;1.35;;;11.80;99.90;;;;;;4992265;28;20497;-72
2023/10/14 08:55:33;;;;;;;10.77;1.75;;;11.90;99.90;;;;;;4991243;28;20042;-73
2023/10/14 08:58:04;;;;;;;13.20;1.73;;;12.00;99.90;;;;;;4966793;28;20374;-74
2023/10/14 09:00:38;;;;;;;10.30;1.75;;;12.10;99.90;;;;;;4995602;28;20065;-77
2023/10/14 09:03:06;;;;;;;12.35;1.80;;;12.20;99.90;;;;;;4977984;28;20049;-77
2023/10/14 09:05:39;;;;;;;5.97;1.40;;;12.30;99.90;;;;;;4971778;28;20057;-73
2023/10/14 09:08:14;;;;;;;11.05;1.73;;;12.40;99.90;;;;;;4991753;28;20145;-72
2023/10/14 09:10:40;;;;;;;8.52;1.35;;;12.50;99.90;;;;;;4992828;28;20422;-72
2023/10/14 09:13:11;;;;;;;7.03;1.25;;;12.50;99.90;;;;;;4992626;28;20085;-76
2023/10/14 09:15:39;;;;;;;9.73;1.52;;;12.70;99.90;;;;;;4989991;28;20035;-78
2023/10/14 09:18:19;;;;;;;6.85;1.23;;;12.70;99.90;;;;;;4975923;28;20068;-75
2023/10/14 09:20:51;;;;;;;10.07;1.88;;;12.80;99.90;;;;;;4973246;28;20397;-76
2023/10/14 09:23:18;;;;;;;10.52;1.73;;;12.80;99.90;;;;;;4979291;28;20043;-73
2023/10/14 09:25:58;;;;;;;5.55;1.30;;;12.80;99.90;;;;;;4959836;28;20038;-72
2023/10/14 09:28:45;;;;;;;9.48;1.35;;;12.90;99.90;;;;;;4959961;28;20090;-78
2023/10/14 09:31:11;;;;;;;10.48;1.50;;;13.00;99.90;;;;;;4975439;28;20042;-76
2023/10/14 09:33:44;;;;;;;8.32;1.40;;;13.10;99.90;;;;;;4976311;28;20038;-71
2023/10/14 09:36:14;;;;;;;15.27;1.60;;;13.10;99.90;;;;;;4973265;28;20043;-72
2023/10/14 09:38:40;;;;;;;6.22;1.30;;;13.10;99.90;;;;;;4981503;28;20042;-77
2023/10/14 09:41:08;;;;;;;11.10;1.02;;;13.10;99.90;;;;;;4973622;28;20042;-71
2023/10/14 09:43:39;;;;;;;7.35;1.17;;;13.10;99.90;;;;;;4963992;28;20060;-71
2023/10/14 09:46:09;;;;;;;4.63;0.90;;;13.10;99.90;;;;;;4975511;28;20125;-75
2023/10/14 09:48:35;;;;;;;4.67;0.83;;;13.20;99.90;;;;;;4990920;28;20038;-71
2023/10/14 09:51:02;;;;;;;8.25;1.33;;;13.20;99.90;;;;;;4957199;28;20034;-71
2023/10/14 09:53:34;;;;;;;6.85;1.00;;;13.20;99.90;;;;;;4974705;28;20042;-71
2023/10/14 09:56:05;;;;;;;5.07;1.08;;;13.20;99.90;;;;;;4989988;28;20045;-70
2023/10/14 09:58:34;;;;;;;5.38;1.05;;;13.30;99.90;;;;;;4995288;28;20347;-68
2023/10/14 10:01:03;;;;;;;7.20;1.38;;;13.30;99.90;;;;;;5002175;28;20046;-70
2023/10/14 10:03:44;;;;;;;6.72;1.50;;;13.50;99.90;;;;;;4978552;28;20046;-72
2023/10/14 10:06:37;;;;;;;7.68;1.25;;;13.70;99.90;;;;;;4961658;28;20096;-76
2023/10/14 10:09:20;;;;;;;5.18;0.77;;;13.80;99.90;;;;;;4971443;28;20288;-76
2023/10/14 10:11:50;;;;;;;7.53;0.98;;;13.60;99.90;;;;;;4974796;28;20422;-72
2023/10/14 10:14:19;;;;;;;;;;;13.30;99.90;;;;;;4975441;28;20042;-76
2023/10/14 10:16:48;;;;;;;6.18;1.58;;;13.00;99.90;;;;;;4958520;28;19918;-72
2023/10/14 10:19:14;;;;;;;6.05;0.85;;;12.10;99.90;;;;;;4987601;28;20065;-72
2023/10/14 10:22:17;;;;;;;8.40;1.25;;;11.30;99.90;;;;;;4988106;28;20042;-72
2023/10/14 10:24:45;;;;;;;6.68;1.38;;;10.90;99.90;;;;;;4966635;28;20268;-72
2023/10/14 10:27:11;;;;;;;8.57;1.17;;;10.70;99.90;;;;;;4974736;28;20057;-69
2023/10/14 10:29:50;;;;;;;9.65;1.67;;;10.50;99.90;;;;;;4974885;28;20038;-73
2023/10/14 10:32:21;;;;;;;7.78;1.00;;;10.60;99.90;;;;;;4978374;28;20042;-72
2023/10/14 10:35:05;;;;;;;11.32;1.35;;;10.60;99.90;;;;;;4953129;28;20042;-71
2023/10/14 10:37:56;;;;;;;7.32;1.17;;;10.60;99.90;;;;;;4974170;28;20057;-74
2023/10/14 10:40:27;;;;;;;10.30;1.40;;;10.60;99.90;;;;;;4974356;28;20499;-70
2023/10/14 10:42:58;;;;;;;9.48;1.48;;;10.70;99.90;;;;;;4975186;28;20387;-73
2023/10/14 10:45:32;;;;;;;8.40;1.42;;;10.70;99.90;;;;;;4972967;28;20390;-71
2023/10/14 10:48:00;;;;;;;5.45;0.82;;;10.80;99.90;;;;;;4955420;28;20376;-74
2023/10/14 10:50:28;;;;;;;5.10;1.02;;;10.90;99.90;;;;;;4952337;28;20066;-73
2023/10/14 10:53:16;;;;;;;6.88;1.23;;;10.90;99.90;;;;;;4970946;28;20137;-74
2023/10/14 10:55:48;;;;;;;8.13;1.10;;;10.90;99.90;;;;;;4951194;28;20043;-72
2023/10/14 10:58:15;;;;;;;7.10;1.17;;;10.90;99.90;;;;;;4988242;28;20413;-74
2023/10/14 11:00:42;;;;;;;6.60;1.67;;;10.90;99.90;;;;;;4974088;28;20106;-73
2023/10/14 11:03:13;;;;;;;6.75;1.02;;;11.00;99.90;;;;;;4989937;28;20050;-73
2023/10/14 11:05:41;;;;;;;3.05;0.85;;;11.10;99.90;;;;;;4970403;28;20453;-73
2023/10/14 11:08:07;;;;;;;6.25;1.15;;;11.00;99.90;;;;;;4974111;28;20082;-72
2023/10/14 11:10:38;;;;;;;6.60;1.13;;;11.10;99.90;;;;;;4973213;28;20049;-73
2023/10/14 11:13:06;;;;;;;5.63;0.82;;;11.10;99.90;;;;;;4957884;28;20478;-76
2023/10/14 11:15:32;;;;;;;7.22;0.90;;;11.20;99.90;;;;;;4981572;28;20065;-72
2023/10/14 11:17:59;;;;;;;6.78;0.80;;;11.30;99.90;;;;;;4973960;28;20042;-73
2023/10/14 11:20:33;;;;;;;3.60;0.90;;;11.40;99.90;;;;;;4970819;28;20068;-74
2023/10/14 11:23:00;;;;;;;5.97;0.98;;;11.50;99.90;;;;;;4959585;28;20387;-78
2023/10/14 11:25:30;;;;;;;7.38;0.82;;;11.70;99.90;;;;;;4971807;28;20042;-74
2023/10/14 11:27:57;;;;;;;4.53;1.02;;;11.80;99.90;;;;;;4990433;28;20078;-75
2023/10/14 11:30:28;;;;;;;5.63;0.77;;;12.00;99.90;;;;;;4973442;28;20038;-78
2023/10/14 11:32:58;;;;;;;5.22;1.00;;;12.10;99.90;;;;;;4969537;28;20130;-78
2023/10/14 11:35:28;;;;;;;4.22;1.00;;;12.20;99.90;;;;;;4985803;28;20042;-77
2023/10/14 11:38:00;;;;;;;6.55;0.88;;;12.30;99.90;;;;;;4973805;28;20114;-82
2023/10/14 11:40:35;;;;;;;7.93;1.17;;;12.50;99.90;;;;;;4973175;28;20188;-75
2023/10/14 11:43:02;;;;;;;6.43;0.88;;;12.50;99.90;;;;;;4974340;28;20050;-71
2023/10/14 11:45:27;;;;;;;4.60;0.75;;;12.00;99.90;;;;;;4972687;28;20050;-73
2023/10/14 11:47:53;;;;;;;4.68;0.70;;;11.60;99.90;;;;;;4957937;28;20103;-73
2023/10/14 11:50:19;;;;;;;5.22;0.60;;;11.40;99.90;;;;;;4953828;28;20121;-73
2023/10/14 11:52:48;;;;;;;5.78;0.70;;;11.40;99.90;;;;;;4972665;28;20035;-71
2023/10/14 11:55:14;;;;;;;5.43;0.60;;;11.40;99.90;;;;;;4973970;28;20038;-72
2023/10/14 11:57:45;;;;;;;4.80;0.77;;;11.60;99.90;;;;;;4973861;28;20122;-76
2023/10/14 12:00:12;;;;;;;3.97;0.90;;;11.80;99.90;;;;;;4971978;28;20080;-72
2023/10/14 12:02:41;;;;;;;2.92;0.77;;;12.10;99.90;;;;;;4957434;28;20046;-77
2023/10/14 12:05:07;;;;;;;5.10;1.27;;;12.10;99.90;;;;;;4954671;28;20045;-77
2023/10/14 12:07:33;;;;;;;3.42;0.52;;;12.30;99.90;;;;;;4972737;28;20042;-70
2023/10/14 12:10:00;;;;;;;3.45;0.63;;;12.30;99.90;;;;;;4969407;28;20041;-74
2023/10/14 12:12:26;;;;;;;6.80;0.63;;;12.20;99.90;;;;;;4966888;28;20045;-75
2023/10/14 12:14:52;;;;;;;3.13;0.55;;;12.20;99.90;;;;;;4963449;28;20041;-71
2023/10/14 12:17:18;;;;;;;4.03;0.80;;;12.10;99.90;;;;;;4969992;28;20489;-79
2023/10/14 12:19:44;;;;;;;1.95;0.40;;;12.20;99.90;;;;;;4953810;28;20453;-71
2023/10/14 12:22:09;;;;;;;4.40;0.63;;;12.10;99.90;;;;;;4963180;28;20502;-71
2023/10/14 12:24:35;;;;;;;2.33;0.57;;;12.10;99.90;;;;;;4970928;28;20479;-75
2023/10/14 12:27:01;;;;;;;6.88;0.93;;;11.90;99.90;;;;;;4955198;28;20035;-70
2023/10/14 12:29:27;;;;;;;6.10;0.85;;;12.00;99.90;;;;;;4970965;28;20039;-72
2023/10/14 12:31:58;;;;;;;5.53;1.10;;;11.90;99.90;;;;;;4990977;28;20039;-74
2023/10/14 12:34:24;;;;;;;6.18;0.73;;;11.90;99.90;;;;;;4953909;28;20046;-74
2023/10/14 12:36:52;;;;;;;3.97;0.70;;;11.80;99.90;;;;;;4968576;28;20062;-76
2023/10/14 12:39:26;;;;;;;5.40;1.02;;;11.70;99.90;;;;;;4972264;28;20051;-70
2023/10/14 12:41:53;;;;;;;5.07;0.80;;;11.70;99.90;;;;;;4989532;28;20102;-69
2023/10/14 12:44:19;;;;;;;6.47;1.23;;;11.40;99.90;;;;;;4972858;28;20408;-74
2023/10/14 12:46:45;;;;;;;5.30;2.28;;;11.30;99.90;;;;;;4957969;28;20054;-70
2023/10/14 12:49:11;;;;;;;6.45;1.40;;;11.30;99.90;;;;;;4954051;28;20057;-71
2023/10/14 12:51:43;;;;;;;8.15;1.33;;;11.30;99.90;;;;;;4972777;28;20372;-74
2023/10/14 12:54:16;;;;;;;9.38;1.60;;;11.40;99.90;;;;;;4973693;28;20458;-71
2023/10/14 12:56:43;;;;;;;9.55;1.20;;;11.60;99.90;;;;;;4972518;28;20050;-73
2023/10/14 12:59:15;;;;;;;8.60;1.65;;;11.90;99.90;;;;;;4972785;28;20062;-70
2023/10/14 13:01:53;;;;;;;10.75;1.80;;;11.80;99.90;;;;;;4973845;28;20054;-71
2023/10/14 13:04:19;;;;;;;8.65;1.20;;;11.90;99.90;;;;;;4971945;28;20066;-70
2023/10/14 13:06:46;;;;;;;8.15;2.28;;;11.90;99.90;;;;;;4972200;28;20407;-74
2023/10/14 13:09:13;;;;;;;6.13;1.50;;;12.00;99.90;;;;;;4972654;28;20070;-74
2023/10/14 13:11:43;;;;;;;7.85;1.45;;;12.00;99.90;;;;;;4973879;28;20125;-72
2023/10/14 13:14:10;;;;;;;11.02;1.75;;;12.10;99.90;;;;;;4973438;28;20039;-71
2023/10/14 13:16:36;;;;;;;9.70;1.45;;;12.10;99.90;;;;;;4971373;28;20034;-69
2023/10/14 13:19:03;;;;;;;8.68;1.38;;;12.00;99.90;;;;;;4964142;28;20073;-71
2023/10/14 13:21:29;;;;;;;8.05;1.83;;;12.00;99.90;;;;;;4974249;28;20042;-73
2023/10/14 13:24:06;;;;;;;15.20;1.90;;;12.10;99.90;;;;;;4957269;28;20529;-75
2023/10/14 13:26:32;;;;;;;7.43;1.65;;;12.10;99.90;;;;;;4967564;28;20062;-73
2023/10/14 13:28:58;;;;;;;5.60;1.27;;;12.10;99.90;;;;;;4975088;28;20069;-69
2023/10/14 13:31:24;;;;;;;9.70;1.88;;;12.30;99.90;;;;;;4976335;28;20038;-69
2023/10/14 13:33:50;;;;;;;12.02;1.60;;;12.20;99.90;;;;;;4976197;28;20053;-72
2023/10/14 13:36:20;;;;;;;8.88;1.63;;;12.30;99.90;;;;;;4972972;28;20038;-78
2023/10/14 13:38:47;;;;;;;;;;;12.20;99.90;;;;;;4975975;28;20038;-72
2023/10/14 13:41:14;;;;;;;8.10;1.40;;;12.30;99.90;;;;;;4960474;28;19917;-71